sensor_id;sensor_type;location;lat;lon;timestamp;temperature;humidity
4406;DHT22;2216;53.806;11.598;2023-07-16T00:01:30;23.80;50.40
4406;DHT22;2216;53.806;11.598;2023-07-16T00:03:56;23.70;50.40
4406;DHT22;2216;53.806;11.598;2023-07-16T00:06:22;23.70;50.50
4406;DHT22;2216;53.806;11.598;2023-07-16T00:08:47;23.60;50.40
4406;DHT22;2216;53.806;11.598;2023-07-16T00:11:13;23.70;50.40
4406;DHT22;2216;53.806;11.598;2023-07-16T00:13:39;23.90;50.40
4406;DHT22;2216;53.806;11.598;2023-07-16T00:16:06;23.60;50.60
4406;DHT22;2216;53.806;11.598;2023-07-16T00:18:32;23.80;50.80
4406;DHT22;2216;53.806;11.598;2023-07-16T00:20:58;23.50;50.70
4406;DHT22;2216;53.806;11.598;2023-07-16T00:23:23;23.50;50.50
4406;DHT22;2216;53.806;11.598;2023-07-16T00:25:49;23.50;50.60
4406;DHT22;2216;53.806;11.598;2023-07-16T00:28:15;23.50;50.60
4406;DHT22;2216;53.806;11.598;2023-07-16T00:30:40;23.40;50.50
4406;DHT22;2216;53.806;11.598;2023-07-16T00:33:06;23.40;50.50
4406;DHT22;2216;53.806;11.598;2023-07-16T00:35:32;23.30;50.50
4406;DHT22;2216;53.806;11.598;2023-07-16T00:37:57;23.30;50.50
4406;DHT22;2216;53.806;11.598;2023-07-16T00:40:23;23.20;50.50
4406;DHT22;2216;53.806;11.598;2023-07-16T00:42:49;23.10;50.50
4406;DHT22;2216;53.806;11.598;2023-07-16T00:45:14;23.10;50.60
4406;DHT22;2216;53.806;11.598;2023-07-16T00:47:43;23.00;50.50
4406;DHT22;2216;53.806;11.598;2023-07-16T00:50:12;22.90;50.50
4406;DHT22;2216;53.806;11.598;2023-07-16T00:52:39;22.80;50.50
4406;DHT22;2216;53.806;11.598;2023-07-16T00:55:06;22.80;50.50
4406;DHT22;2216;53.806;11.598;2023-07-16T00:57:33;22.70;50.50
4406;DHT22;2216;53.806;11.598;2023-07-16T00:59:59;22.60;50.50
4406;DHT22;2216;53.806;11.598;2023-07-16T01:02:25;22.50;50.50
4406;DHT22;2216;53.806;11.598;2023-07-16T01:04:51;22.50;50.60
4406;DHT22;2216;53.806;11.598;2023-07-16T01:07:18;22.40;50.60
4406;DHT22;2216;53.806;11.598;2023-07-16T01:09:46;22.30;50.50
4406;DHT22;2216;53.806;11.598;2023-07-16T01:12:13;22.30;50.70
4406;DHT22;2216;53.806;11.598;2023-07-16T01:14:40;22.30;50.60
4406;DHT22;2216;53.806;11.598;2023-07-16T01:17:06;22.20;50.60
4406;DHT22;2216;53.806;11.598;2023-07-16T01:19:33;22.20;50.60
4406;DHT22;2216;53.806;11.598;2023-07-16T01:25:05;22.00;50.60
4406;DHT22;2216;53.806;11.598;2023-07-16T01:28:10;22.00;50.60
4406;DHT22;2216;53.806;11.598;2023-07-16T01:30:47;21.90;50.60
4406;DHT22;2216;53.806;11.598;2023-07-16T01:33:15;21.90;50.60
4406;DHT22;2216;53.806;11.598;2023-07-16T01:35:42;21.80;50.60
4406;DHT22;2216;53.806;11.598;2023-07-16T01:38:10;21.70;50.60
4406;DHT22;2216;53.806;11.598;2023-07-16T01:40:37;21.70;50.60
4406;DHT22;2216;53.806;11.598;2023-07-16T01:43:03;21.70;50.60
4406;DHT22;2216;53.806;11.598;2023-07-16T01:45:28;21.60;50.60
4406;DHT22;2216;53.806;11.598;2023-07-16T01:48:16;21.60;50.70
4406;DHT22;2216;53.806;11.598;2023-07-16T01:50:50;21.50;50.70
4406;DHT22;2216;53.806;11.598;2023-07-16T01:53:15;21.50;50.70
4406;DHT22;2216;53.806;11.598;2023-07-16T01:55:41;21.50;50.90
4406;DHT22;2216;53.806;11.598;2023-07-16T01:58:07;21.40;50.80
4406;DHT22;2216;53.806;11.598;2023-07-16T02:00:33;21.40;50.80
4406;DHT22;2216;53.806;11.598;2023-07-16T02:02:59;21.30;50.80
4406;DHT22;2216;53.806;11.598;2023-07-16T02:05:24;21.30;50.80
4406;DHT22;2216;53.806;11.598;2023-07-16T02:07:50;21.30;50.90
4406;DHT22;2216;53.806;11.598;2023-07-16T02:10:16;21.30;50.90
4406;DHT22;2216;53.806;11.598;2023-07-16T02:12:42;21.20;51.00
4406;DHT22;2216;53.806;11.598;2023-07-16T02:15:07;21.20;50.90
4406;DHT22;2216;53.806;11.598;2023-07-16T02:17:33;21.20;50.90
4406;DHT22;2216;53.806;11.598;2023-07-16T02:19:59;21.10;50.90
4406;DHT22;2216;53.806;11.598;2023-07-16T02:22:25;21.10;51.00
4406;DHT22;2216;53.806;11.598;2023-07-16T02:24:50;21.10;51.00
4406;DHT22;2216;53.806;11.598;2023-07-16T02:27:16;21.10;51.00
4406;DHT22;2216;53.806;11.598;2023-07-16T02:29:42;21.00;50.90
4406;DHT22;2216;53.806;11.598;2023-07-16T02:32:07;21.00;50.90
4406;DHT22;2216;53.806;11.598;2023-07-16T02:34:33;21.00;50.90
4406;DHT22;2216;53.806;11.598;2023-07-16T02:36:59;21.00;51.00
4406;DHT22;2216;53.806;11.598;2023-07-16T02:39:24;21.00;51.00
4406;DHT22;2216;53.806;11.598;2023-07-16T02:41:50;20.90;51.00
4406;DHT22;2216;53.806;11.598;2023-07-16T02:44:16;20.90;51.00
4406;DHT22;2216;53.806;11.598;2023-07-16T02:46:41;20.90;51.00
4406;DHT22;2216;53.806;11.598;2023-07-16T02:49:07;20.80;51.00
4406;DHT22;2216;53.806;11.598;2023-07-16T02:51:33;20.80;51.00
4406;DHT22;2216;53.806;11.598;2023-07-16T02:53:58;20.80;51.00
4406;DHT22;2216;53.806;11.598;2023-07-16T02:56:24;20.70;51.00
4406;DHT22;2216;53.806;11.598;2023-07-16T02:58:50;20.70;51.10
4406;DHT22;2216;53.806;11.598;2023-07-16T03:01:15;20.60;51.00
4406;DHT22;2216;53.806;11.598;2023-07-16T03:03:41;20.60;51.10
4406;DHT22;2216;53.806;11.598;2023-07-16T03:06:07;20.60;51.10
4406;DHT22;2216;53.806;11.598;2023-07-16T03:08:34;20.50;51.10
4406;DHT22;2216;53.806;11.598;2023-07-16T03:11:00;20.50;51.10
4406;DHT22;2216;53.806;11.598;2023-07-16T03:13:25;20.50;51.10
4406;DHT22;2216;53.806;11.598;2023-07-16T03:15:51;20.40;51.10
4406;DHT22;2216;53.806;11.598;2023-07-16T03:18:18;20.40;51.10
4406;DHT22;2216;53.806;11.598;2023-07-16T03:20:44;20.40;51.10
4406;DHT22;2216;53.806;11.598;2023-07-16T03:23:10;20.40;51.20
4406;DHT22;2216;53.806;11.598;2023-07-16T03:25:36;20.40;51.20
4406;DHT22;2216;53.806;11.598;2023-07-16T03:28:02;20.40;51.20
4406;DHT22;2216;53.806;11.598;2023-07-16T03:30:27;20.40;51.80
4406;DHT22;2216;53.806;11.598;2023-07-16T03:32:55;20.30;51.20
4406;DHT22;2216;53.806;11.598;2023-07-16T03:35:20;20.40;51.30
4406;DHT22;2216;53.806;11.598;2023-07-16T03:37:46;20.30;51.20
4406;DHT22;2216;53.806;11.598;2023-07-16T03:40:16;20.30;51.20
4406;DHT22;2216;53.806;11.598;2023-07-16T03:42:43;20.30;51.30
4406;DHT22;2216;53.806;11.598;2023-07-16T03:45:10;20.30;51.20
4406;DHT22;2216;53.806;11.598;2023-07-16T03:47:36;20.30;51.30
4406;DHT22;2216;53.806;11.598;2023-07-16T03:50:02;20.20;51.30
4406;DHT22;2216;53.806;11.598;2023-07-16T03:52:28;20.20;51.40
4406;DHT22;2216;53.806;11.598;2023-07-16T03:54:54;20.20;51.30
4406;DHT22;2216;53.806;11.598;2023-07-16T03:57:20;20.20;51.50
4406;DHT22;2216;53.806;11.598;2023-07-16T03:59:46;20.10;51.30
4406;DHT22;2216;53.806;11.598;2023-07-16T04:02:12;20.10;51.30
4406;DHT22;2216;53.806;11.598;2023-07-16T04:04:37;20.00;51.30
4406;DHT22;2216;53.806;11.598;2023-07-16T04:07:03;20.10;51.40
4406;DHT22;2216;53.806;11.598;2023-07-16T04:09:29;20.00;51.40
4406;DHT22;2216;53.806;11.598;2023-07-16T04:11:54;20.00;51.40
4406;DHT22;2216;53.806;11.598;2023-07-16T04:14:20;20.00;51.40
4406;DHT22;2216;53.806;11.598;2023-07-16T04:16:46;20.00;51.40
4406;DHT22;2216;53.806;11.598;2023-07-16T04:19:11;20.00;51.50
4406;DHT22;2216;53.806;11.598;2023-07-16T04:21:37;20.00;51.50
4406;DHT22;2216;53.806;11.598;2023-07-16T04:24:04;20.00;51.50
4406;DHT22;2216;53.806;11.598;2023-07-16T04:26:31;20.00;51.50
4406;DHT22;2216;53.806;11.598;2023-07-16T04:28:57;20.00;51.50
4406;DHT22;2216;53.806;11.598;2023-07-16T04:31:23;20.00;51.50
4406;DHT22;2216;53.806;11.598;2023-07-16T04:33:49;20.00;51.60
4406;DHT22;2216;53.806;11.598;2023-07-16T04:36:15;20.00;51.50
4406;DHT22;2216;53.806;11.598;2023-07-16T04:38:41;20.00;51.50
4406;DHT22;2216;53.806;11.598;2023-07-16T04:41:07;20.00;51.50
4406;DHT22;2216;53.806;11.598;2023-07-16T04:43:32;20.00;51.50
4406;DHT22;2216;53.806;11.598;2023-07-16T04:45:58;20.00;51.60
4406;DHT22;2216;53.806;11.598;2023-07-16T04:48:26;20.00;51.50
4406;DHT22;2216;53.806;11.598;2023-07-16T04:50:51;19.90;51.50
4406;DHT22;2216;53.806;11.598;2023-07-16T04:53:21;20.00;51.50
4406;DHT22;2216;53.806;11.598;2023-07-16T04:55:47;19.90;51.50
4406;DHT22;2216;53.806;11.598;2023-07-16T04:58:14;19.90;51.40
4406;DHT22;2216;53.806;11.598;2023-07-16T05:00:40;19.90;51.50
4406;DHT22;2216;53.806;11.598;2023-07-16T05:03:05;19.90;51.50
4406;DHT22;2216;53.806;11.598;2023-07-16T05:05:31;19.90;51.50
4406;DHT22;2216;53.806;11.598;2023-07-16T05:07:57;19.90;51.50
4406;DHT22;2216;53.806;11.598;2023-07-16T05:10:23;19.90;51.50
4406;DHT22;2216;53.806;11.598;2023-07-16T05:12:48;19.90;51.60
4406;DHT22;2216;53.806;11.598;2023-07-16T05:15:14;19.90;51.60
4406;DHT22;2216;53.806;11.598;2023-07-16T05:17:40;19.90;51.60
4406;DHT22;2216;53.806;11.598;2023-07-16T05:20:07;19.90;51.60
4406;DHT22;2216;53.806;11.598;2023-07-16T05:22:33;20.00;51.70
4406;DHT22;2216;53.806;11.598;2023-07-16T05:24:59;20.00;51.70
4406;DHT22;2216;53.806;11.598;2023-07-16T05:27:24;20.00;51.70
4406;DHT22;2216;53.806;11.598;2023-07-16T05:29:50;20.00;51.70
4406;DHT22;2216;53.806;11.598;2023-07-16T05:32:16;20.00;51.80
4406;DHT22;2216;53.806;11.598;2023-07-16T05:34:41;20.10;51.80
4406;DHT22;2216;53.806;11.598;2023-07-16T05:37:07;20.10;51.80
4406;DHT22;2216;53.806;11.598;2023-07-16T05:39:33;20.30;51.90
4406;DHT22;2216;53.806;11.598;2023-07-16T05:41:58;20.30;52.00
4406;DHT22;2216;53.806;11.598;2023-07-16T05:44:27;20.40;52.00
4406;DHT22;2216;53.806;11.598;2023-07-16T05:46:53;20.50;52.00
4406;DHT22;2216;53.806;11.598;2023-07-16T05:49:19;20.50;52.00
4406;DHT22;2216;53.806;11.598;2023-07-16T05:51:44;20.70;52.00
4406;DHT22;2216;53.806;11.598;2023-07-16T05:54:10;20.70;52.10
4406;DHT22;2216;53.806;11.598;2023-07-16T05:56:36;20.80;52.10
4406;DHT22;2216;53.806;11.598;2023-07-16T05:59:01;20.90;52.20
4406;DHT22;2216;53.806;11.598;2023-07-16T06:01:27;21.10;52.90
4406;DHT22;2216;53.806;11.598;2023-07-16T06:03:53;21.20;52.40
4406;DHT22;2216;53.806;11.598;2023-07-16T06:06:19;21.40;52.50
4406;DHT22;2216;53.806;11.598;2023-07-16T06:08:45;21.70;52.70
4406;DHT22;2216;53.806;11.598;2023-07-16T06:11:12;21.80;52.60
4406;DHT22;2216;53.806;11.598;2023-07-16T06:13:38;22.10;52.40
4406;DHT22;2216;53.806;11.598;2023-07-16T06:16:04;22.30;52.40
4406;DHT22;2216;53.806;11.598;2023-07-16T06:18:30;22.80;53.10
4406;DHT22;2216;53.806;11.598;2023-07-16T06:20:56;22.60;52.10
4406;DHT22;2216;53.806;11.598;2023-07-16T06:23:22;23.00;52.10
4406;DHT22;2216;53.806;11.598;2023-07-16T06:25:48;23.30;52.10
4406;DHT22;2216;53.806;11.598;2023-07-16T06:28:15;23.50;52.00
4406;DHT22;2216;53.806;11.598;2023-07-16T06:30:41;23.70;51.90
4406;DHT22;2216;53.806;11.598;2023-07-16T06:33:07;23.90;51.80
4406;DHT22;2216;53.806;11.598;2023-07-16T06:35:33;24.10;51.70
4406;DHT22;2216;53.806;11.598;2023-07-16T06:37:58;24.30;51.70
4406;DHT22;2216;53.806;11.598;2023-07-16T06:40:24;24.40;52.00
4406;DHT22;2216;53.806;11.598;2023-07-16T06:42:51;24.50;51.30
4406;DHT22;2216;53.806;11.598;2023-07-16T06:45:17;24.70;51.30
4406;DHT22;2216;53.806;11.598;2023-07-16T06:47:43;24.80;51.20
4406;DHT22;2216;53.806;11.598;2023-07-16T06:50:09;25.00;51.20
4406;DHT22;2216;53.806;11.598;2023-07-16T06:52:35;25.10;51.10
4406;DHT22;2216;53.806;11.598;2023-07-16T06:55:01;25.30;51.10
4406;DHT22;2216;53.806;11.598;2023-07-16T06:57:26;25.40;51.00
4406;DHT22;2216;53.806;11.598;2023-07-16T06:59:52;25.50;51.40
4406;DHT22;2216;53.806;11.598;2023-07-16T07:02:19;25.70;50.90
4406;DHT22;2216;53.806;11.598;2023-07-16T07:04:45;25.80;50.90
4406;DHT22;2216;53.806;11.598;2023-07-16T07:07:10;26.00;50.90
4406;DHT22;2216;53.806;11.598;2023-07-16T07:09:36;26.00;50.80
4406;DHT22;2216;53.806;11.598;2023-07-16T07:12:02;26.10;50.70
4406;DHT22;2216;53.806;11.598;2023-07-16T07:14:28;26.20;50.70
4406;DHT22;2216;53.806;11.598;2023-07-16T07:16:54;26.40;50.70
4406;DHT22;2216;53.806;11.598;2023-07-16T07:19:19;26.50;50.60
4406;DHT22;2216;53.806;11.598;2023-07-16T07:21:45;26.60;50.70
4406;DHT22;2216;53.806;11.598;2023-07-16T07:24:12;26.70;50.60
4406;DHT22;2216;53.806;11.598;2023-07-16T07:26:38;26.80;50.50
4406;DHT22;2216;53.806;11.598;2023-07-16T07:29:03;26.90;50.40
4406;DHT22;2216;53.806;11.598;2023-07-16T07:31:29;27.00;50.40
4406;DHT22;2216;53.806;11.598;2023-07-16T07:33:55;27.10;50.00
4406;DHT22;2216;53.806;11.598;2023-07-16T07:36:22;27.10;50.10
4406;DHT22;2216;53.806;11.598;2023-07-16T07:38:48;27.20;50.00
4406;DHT22;2216;53.806;11.598;2023-07-16T07:41:14;27.30;50.10
4406;DHT22;2216;53.806;11.598;2023-07-16T07:43:40;27.30;49.80
4406;DHT22;2216;53.806;11.598;2023-07-16T07:46:05;27.40;49.90
4406;DHT22;2216;53.806;11.598;2023-07-16T07:48:31;27.50;49.90
4406;DHT22;2216;53.806;11.598;2023-07-16T07:50:57;27.60;50.00
4406;DHT22;2216;53.806;11.598;2023-07-16T07:53:23;27.60;49.80
4406;DHT22;2216;53.806;11.598;2023-07-16T07:55:48;27.80;50.00
4406;DHT22;2216;53.806;11.598;2023-07-16T07:58:14;27.80;49.90
4406;DHT22;2216;53.806;11.598;2023-07-16T08:00:40;27.90;49.80
4406;DHT22;2216;53.806;11.598;2023-07-16T08:03:05;28.00;49.60
4406;DHT22;2216;53.806;11.598;2023-07-16T08:05:31;28.10;49.70
4406;DHT22;2216;53.806;11.598;2023-07-16T08:07:58;28.10;49.20
4406;DHT22;2216;53.806;11.598;2023-07-16T08:10:24;28.00;49.40
4406;DHT22;2216;53.806;11.598;2023-07-16T08:12:50;28.00;49.40
4406;DHT22;2216;53.806;11.598;2023-07-16T08:15:15;28.10;49.60
4406;DHT22;2216;53.806;11.598;2023-07-16T08:17:45;28.10;49.60
4406;DHT22;2216;53.806;11.598;2023-07-16T08:20:11;28.30;49.50
4406;DHT22;2216;53.806;11.598;2023-07-16T08:22:38;28.40;49.40
4406;DHT22;2216;53.806;11.598;2023-07-16T08:25:05;28.50;49.50
4406;DHT22;2216;53.806;11.598;2023-07-16T08:27:32;28.60;49.40
4406;DHT22;2216;53.806;11.598;2023-07-16T08:29:57;28.60;49.00
4406;DHT22;2216;53.806;11.598;2023-07-16T08:32:23;28.70;49.10
4406;DHT22;2216;53.806;11.598;2023-07-16T08:34:49;28.80;48.50
4406;DHT22;2216;53.806;11.598;2023-07-16T08:37:15;29.00;49.20
4406;DHT22;2216;53.806;11.598;2023-07-16T08:39:40;29.10;49.30
4406;DHT22;2216;53.806;11.598;2023-07-16T08:42:09;29.20;49.00
4406;DHT22;2216;53.806;11.598;2023-07-16T08:44:37;29.40;48.80
4406;DHT22;2216;53.806;11.598;2023-07-16T08:47:04;29.40;48.70
4406;DHT22;2216;53.806;11.598;2023-07-16T08:49:31;29.50;48.60
4406;DHT22;2216;53.806;11.598;2023-07-16T08:52:01;29.50;48.60
4406;DHT22;2216;53.806;11.598;2023-07-16T08:54:27;29.60;48.60
4406;DHT22;2216;53.806;11.598;2023-07-16T08:56:53;29.70;48.70
4406;DHT22;2216;53.806;11.598;2023-07-16T08:59:19;29.80;48.70
4406;DHT22;2216;53.806;11.598;2023-07-16T09:01:47;30.10;48.80
4406;DHT22;2216;53.806;11.598;2023-07-16T09:04:15;30.00;48.30
4406;DHT22;2216;53.806;11.598;2023-07-16T09:06:42;30.10;48.60
4406;DHT22;2216;53.806;11.598;2023-07-16T09:09:08;30.10;47.70
4406;DHT22;2216;53.806;11.598;2023-07-16T09:11:34;30.10;48.10
4406;DHT22;2216;53.806;11.598;2023-07-16T09:14:01;30.00;47.20
4406;DHT22;2216;53.806;11.598;2023-07-16T09:16:32;30.10;47.60
4406;DHT22;2216;53.806;11.598;2023-07-16T09:19:08;29.90;47.60
4406;DHT22;2216;53.806;11.598;2023-07-16T09:21:36;29.90;47.60
4406;DHT22;2216;53.806;11.598;2023-07-16T09:24:08;29.80;47.70
4406;DHT22;2216;53.806;11.598;2023-07-16T09:26:38;29.90;48.00
4406;DHT22;2216;53.806;11.598;2023-07-16T09:29:07;29.90;48.10
4406;DHT22;2216;53.806;11.598;2023-07-16T09:31:35;30.00;48.00
4406;DHT22;2216;53.806;11.598;2023-07-16T09:34:01;30.10;48.00
4406;DHT22;2216;53.806;11.598;2023-07-16T09:36:27;30.20;48.30
4406;DHT22;2216;53.806;11.598;2023-07-16T09:38:57;30.40;48.30
4406;DHT22;2216;53.806;11.598;2023-07-16T09:41:24;30.50;48.20
4406;DHT22;2216;53.806;11.598;2023-07-16T09:43:50;30.70;48.30
4406;DHT22;2216;53.806;11.598;2023-07-16T09:46:16;30.80;47.80
4406;DHT22;2216;53.806;11.598;2023-07-16T09:48:41;30.90;47.70
4406;DHT22;2216;53.806;11.598;2023-07-16T09:51:08;31.00;47.20
4406;DHT22;2216;53.806;11.598;2023-07-16T09:53:40;30.90;47.30
4406;DHT22;2216;53.806;11.598;2023-07-16T09:56:10;31.00;47.00
4406;DHT22;2216;53.806;11.598;2023-07-16T09:58:37;31.00;47.40
4406;DHT22;2216;53.806;11.598;2023-07-16T10:01:04;31.10;47.30
4406;DHT22;2216;53.806;11.598;2023-07-16T10:03:30;31.10;47.40
4406;DHT22;2216;53.806;11.598;2023-07-16T10:06:08;31.20;47.00
4406;DHT22;2216;53.806;11.598;2023-07-16T10:08:34;31.20;47.10
4406;DHT22;2216;53.806;11.598;2023-07-16T10:11:00;31.10;47.00
4406;DHT22;2216;53.806;11.598;2023-07-16T10:13:26;31.10;46.70
4406;DHT22;2216;53.806;11.598;2023-07-16T10:15:54;31.00;46.80
4406;DHT22;2216;53.806;11.598;2023-07-16T10:18:26;30.80;46.70
4406;DHT22;2216;53.806;11.598;2023-07-16T10:21:08;30.60;46.40
4406;DHT22;2216;53.806;11.598;2023-07-16T10:23:39;30.50;46.30
4406;DHT22;2216;53.806;11.598;2023-07-16T10:26:06;30.50;46.70
4406;DHT22;2216;53.806;11.598;2023-07-16T10:28:35;30.40;46.70
4406;DHT22;2216;53.806;11.598;2023-07-16T10:31:03;30.40;46.80
4406;DHT22;2216;53.806;11.598;2023-07-16T10:33:28;30.40;47.10
4406;DHT22;2216;53.806;11.598;2023-07-16T10:35:57;30.50;46.50
4406;DHT22;2216;53.806;11.598;2023-07-16T10:38:26;30.50;46.80
4406;DHT22;2216;53.806;11.598;2023-07-16T10:40:52;30.50;46.70
4406;DHT22;2216;53.806;11.598;2023-07-16T10:43:18;30.50;46.60
4406;DHT22;2216;53.806;11.598;2023-07-16T10:45:44;30.40;46.60
4406;DHT22;2216;53.806;11.598;2023-07-16T10:48:12;30.20;46.40
4406;DHT22;2216;53.806;11.598;2023-07-16T10:50:38;30.20;46.70
4406;DHT22;2216;53.806;11.598;2023-07-16T10:53:04;30.20;46.40
4406;DHT22;2216;53.806;11.598;2023-07-16T10:55:30;30.20;46.50
4406;DHT22;2216;53.806;11.598;2023-07-16T10:57:58;30.20;46.40
4406;DHT22;2216;53.806;11.598;2023-07-16T11:00:23;30.00;46.30
4406;DHT22;2216;53.806;11.598;2023-07-16T11:02:50;30.20;46.70
4406;DHT22;2216;53.806;11.598;2023-07-16T11:05:17;30.20;46.60
4406;DHT22;2216;53.806;11.598;2023-07-16T11:07:47;30.30;46.80
4406;DHT22;2216;53.806;11.598;2023-07-16T11:10:15;30.50;46.30
4406;DHT22;2216;53.806;11.598;2023-07-16T11:12:42;30.60;46.20
4406;DHT22;2216;53.806;11.598;2023-07-16T11:15:08;30.60;45.90
4406;DHT22;2216;53.806;11.598;2023-07-16T11:17:38;30.70;45.80
4406;DHT22;2216;53.806;11.598;2023-07-16T11:20:07;30.70;46.20
4406;DHT22;2216;53.806;11.598;2023-07-16T11:22:38;30.80;46.30
4406;DHT22;2216;53.806;11.598;2023-07-16T11:25:11;31.00;45.90
4406;DHT22;2216;53.806;11.598;2023-07-16T11:27:41;31.10;46.00
4406;DHT22;2216;53.806;11.598;2023-07-16T11:30:08;30.90;45.70
4406;DHT22;2216;53.806;11.598;2023-07-16T11:32:42;30.90;45.70
4406;DHT22;2216;53.806;11.598;2023-07-16T11:35:15;31.00;46.00
4406;DHT22;2216;53.806;11.598;2023-07-16T11:37:41;31.00;45.60
4406;DHT22;2216;53.806;11.598;2023-07-16T11:40:09;31.10;45.70
4406;DHT22;2216;53.806;11.598;2023-07-16T11:42:38;31.10;45.60
4406;DHT22;2216;53.806;11.598;2023-07-16T11:45:14;31.10;44.80
4406;DHT22;2216;53.806;11.598;2023-07-16T11:47:41;31.00;44.70
4406;DHT22;2216;53.806;11.598;2023-07-16T11:50:07;31.00;45.00
4406;DHT22;2216;53.806;11.598;2023-07-16T11:52:33;31.00;45.30
4406;DHT22;2216;53.806;11.598;2023-07-16T11:54:59;31.00;45.20
4406;DHT22;2216;53.806;11.598;2023-07-16T11:57:25;31.10;45.20
4406;DHT22;2216;53.806;11.598;2023-07-16T11:59:50;31.00;45.30
4406;DHT22;2216;53.806;11.598;2023-07-16T12:02:16;31.10;45.40
4406;DHT22;2216;53.806;11.598;2023-07-16T12:04:42;31.10;45.10
4406;DHT22;2216;53.806;11.598;2023-07-16T12:07:08;31.10;44.90
4406;DHT22;2216;53.806;11.598;2023-07-16T12:09:33;31.10;44.80
4406;DHT22;2216;53.806;11.598;2023-07-16T12:11:59;31.20;45.10
4406;DHT22;2216;53.806;11.598;2023-07-16T12:14:26;31.00;44.90
4406;DHT22;2216;53.806;11.598;2023-07-16T12:16:51;31.00;45.00
4406;DHT22;2216;53.806;11.598;2023-07-16T12:19:17;31.20;45.20
4406;DHT22;2216;53.806;11.598;2023-07-16T12:21:43;31.00;44.70
4406;DHT22;2216;53.806;11.598;2023-07-16T12:24:09;31.20;44.90
4406;DHT22;2216;53.806;11.598;2023-07-16T12:26:35;31.20;44.90
4406;DHT22;2216;53.806;11.598;2023-07-16T12:29:01;31.30;45.20
4406;DHT22;2216;53.806;11.598;2023-07-16T12:31:33;31.20;44.30
4406;DHT22;2216;53.806;11.598;2023-07-16T12:34:00;31.20;44.70
4406;DHT22;2216;53.806;11.598;2023-07-16T12:36:27;31.30;44.70
4406;DHT22;2216;53.806;11.598;2023-07-16T12:38:53;31.00;44.60
4406;DHT22;2216;53.806;11.598;2023-07-16T12:41:19;30.70;43.60
4406;DHT22;2216;53.806;11.598;2023-07-16T12:43:46;30.80;44.20
4406;DHT22;2216;53.806;11.598;2023-07-16T12:46:12;30.50;43.80
4406;DHT22;2216;53.806;11.598;2023-07-16T12:48:38;30.40;44.00
4406;DHT22;2216;53.806;11.598;2023-07-16T12:51:03;30.20;44.10
4406;DHT22;2216;53.806;11.598;2023-07-16T12:53:29;30.00;44.20
4406;DHT22;2216;53.806;11.598;2023-07-16T12:55:55;30.10;44.40
4406;DHT22;2216;53.806;11.598;2023-07-16T12:58:21;30.00;44.20
4406;DHT22;2216;53.806;11.598;2023-07-16T13:00:46;29.90;44.40
4406;DHT22;2216;53.806;11.598;2023-07-16T13:03:12;29.80;44.30
4406;DHT22;2216;53.806;11.598;2023-07-16T13:05:42;29.70;44.00
4406;DHT22;2216;53.806;11.598;2023-07-16T13:08:08;29.70;44.20
4406;DHT22;2216;53.806;11.598;2023-07-16T13:10:34;29.50;44.20
4406;DHT22;2216;53.806;11.598;2023-07-16T13:13:00;29.60;44.60
4406;DHT22;2216;53.806;11.598;2023-07-16T13:15:25;29.60;44.60
4406;DHT22;2216;53.806;11.598;2023-07-16T13:17:51;29.60;44.80
4406;DHT22;2216;53.806;11.598;2023-07-16T13:20:17;29.60;44.40
4406;DHT22;2216;53.806;11.598;2023-07-16T13:22:44;29.60;44.60
4406;DHT22;2216;53.806;11.598;2023-07-16T13:25:09;29.70;44.60
4406;DHT22;2216;53.806;11.598;2023-07-16T13:27:35;29.70;44.70
4406;DHT22;2216;53.806;11.598;2023-07-16T13:30:01;29.70;44.60
4406;DHT22;2216;53.806;11.598;2023-07-16T13:32:27;29.70;44.50
4406;DHT22;2216;53.806;11.598;2023-07-16T13:34:54;29.80;44.70
4406;DHT22;2216;53.806;11.598;2023-07-16T13:37:19;29.90;45.20
4406;DHT22;2216;53.806;11.598;2023-07-16T13:39:45;29.90;44.50
4406;DHT22;2216;53.806;11.598;2023-07-16T13:42:11;29.90;44.40
4406;DHT22;2216;53.806;11.598;2023-07-16T13:44:37;29.80;44.30
4406;DHT22;2216;53.806;11.598;2023-07-16T13:47:03;29.90;44.50
4406;DHT22;2216;53.806;11.598;2023-07-16T13:49:29;29.60;44.30
4406;DHT22;2216;53.806;11.598;2023-07-16T13:51:55;29.70;44.40
4406;DHT22;2216;53.806;11.598;2023-07-16T13:54:21;29.70;44.10
4406;DHT22;2216;53.806;11.598;2023-07-16T13:56:48;29.70;44.30
4406;DHT22;2216;53.806;11.598;2023-07-16T13:59:14;29.70;44.50
4406;DHT22;2216;53.806;11.598;2023-07-16T14:01:40;29.60;44.40
4406;DHT22;2216;53.806;11.598;2023-07-16T14:04:06;29.60;44.40
4406;DHT22;2216;53.806;11.598;2023-07-16T14:06:32;29.50;44.00
4406;DHT22;2216;53.806;11.598;2023-07-16T14:08:58;29.50;44.20
4406;DHT22;2216;53.806;11.598;2023-07-16T14:11:24;29.50;44.00
4406;DHT22;2216;53.806;11.598;2023-07-16T14:13:51;29.40;44.10
4406;DHT22;2216;53.806;11.598;2023-07-16T14:16:20;29.50;43.90
4406;DHT22;2216;53.806;11.598;2023-07-16T14:18:53;29.20;43.90
4406;DHT22;2216;53.806;11.598;2023-07-16T14:21:19;29.40;44.50
4406;DHT22;2216;53.806;11.598;2023-07-16T14:23:46;29.50;44.40
4406;DHT22;2216;53.806;11.598;2023-07-16T14:26:12;29.50;44.40
4406;DHT22;2216;53.806;11.598;2023-07-16T14:28:38;29.50;44.30
4406;DHT22;2216;53.806;11.598;2023-07-16T14:31:03;29.60;44.20
4406;DHT22;2216;53.806;11.598;2023-07-16T14:33:29;29.60;43.90
4406;DHT22;2216;53.806;11.598;2023-07-16T14:35:55;29.50;44.20
4406;DHT22;2216;53.806;11.598;2023-07-16T14:38:21;29.50;44.20
4406;DHT22;2216;53.806;11.598;2023-07-16T14:40:47;29.40;44.10
4406;DHT22;2216;53.806;11.598;2023-07-16T14:43:13;29.30;44.00
4406;DHT22;2216;53.806;11.598;2023-07-16T14:45:39;29.40;43.90
4406;DHT22;2216;53.806;11.598;2023-07-16T14:48:05;29.30;43.80
4406;DHT22;2216;53.806;11.598;2023-07-16T14:50:31;29.20;43.80
4406;DHT22;2216;53.806;11.598;2023-07-16T14:52:57;29.10;43.80
4406;DHT22;2216;53.806;11.598;2023-07-16T14:55:23;28.90;43.60
4406;DHT22;2216;53.806;11.598;2023-07-16T14:57:48;28.80;43.60
4406;DHT22;2216;53.806;11.598;2023-07-16T15:00:14;28.70;43.70
4406;DHT22;2216;53.806;11.598;2023-07-16T15:02:40;28.60;43.70
4406;DHT22;2216;53.806;11.598;2023-07-16T15:05:07;28.50;43.80
4406;DHT22;2216;53.806;11.598;2023-07-16T15:07:35;28.50;43.90
4406;DHT22;2216;53.806;11.598;2023-07-16T15:10:01;28.40;43.90
4406;DHT22;2216;53.806;11.598;2023-07-16T15:12:28;28.50;44.00
4406;DHT22;2216;53.806;11.598;2023-07-16T15:14:53;28.40;43.90
4406;DHT22;2216;53.806;11.598;2023-07-16T15:17:19;28.40;44.00
4406;DHT22;2216;53.806;11.598;2023-07-16T15:19:45;28.30;43.90
4406;DHT22;2216;53.806;11.598;2023-07-16T15:22:10;28.20;44.00
4406;DHT22;2216;53.806;11.598;2023-07-16T15:24:36;28.20;44.00
4406;DHT22;2216;53.806;11.598;2023-07-16T15:27:02;28.20;44.00
4406;DHT22;2216;53.806;11.598;2023-07-16T15:29:31;28.20;44.20
4406;DHT22;2216;53.806;11.598;2023-07-16T15:31:57;28.20;44.20
4406;DHT22;2216;53.806;11.598;2023-07-16T15:34:22;28.10;44.00
4406;DHT22;2216;53.806;11.598;2023-07-16T15:36:48;28.10;43.80
4406;DHT22;2216;53.806;11.598;2023-07-16T15:39:13;28.00;44.00
4406;DHT22;2216;53.806;11.598;2023-07-16T15:41:39;27.90;44.00
4406;DHT22;2216;53.806;11.598;2023-07-16T15:44:05;27.80;44.00